sensor_id;sensor_type;location;lat;lon;timestamp;P1;durP1;ratioP1;P2;durP2;ratioP2
46845;SDS011;33947;46.804;134.252;2023-04-01T00:01:50;4.55;;;2.25;;
46845;SDS011;33947;46.804;134.252;2023-04-01T00:04:54;5.15;;;2.35;;
46845;SDS011;33947;46.804;134.252;2023-04-01T00:07:57;6.85;;;1.90;;
46845;SDS011;33947;46.804;134.252;2023-04-01T00:11:02;25.60;;;14.75;;
46845;SDS011;33947;46.804;134.252;2023-04-01T00:14:06;12.95;;;5.57;;
46845;SDS011;33947;46.804;134.252;2023-04-01T00:17:10;6.32;;;4.63;;
46845;SDS011;33947;46.804;134.252;2023-04-01T00:20:15;1.83;;;1.65;;
46845;SDS011;33947;46.804;134.252;2023-04-01T00:23:20;12.95;;;2.90;;
46845;SDS011;33947;46.804;134.252;2023-04-01T00:26:25;2.45;;;1.55;;
46845;SDS011;33947;46.804;134.252;2023-04-01T00:29:29;2.55;;;1.45;;
46845;SDS011;33947;46.804;134.252;2023-04-01T00:32:34;1.65;;;1.20;;
46845;SDS011;33947;46.804;134.252;2023-04-01T00:35:39;7.90;;;3.08;;
46845;SDS011;33947;46.804;134.252;2023-04-01T00:38:43;33.97;;;17.17;;
46845;SDS011;33947;46.804;134.252;2023-04-01T00:41:49;10.45;;;5.20;;
46845;SDS011;33947;46.804;134.252;2023-04-01T00:44:53;6.53;;;1.48;;
46845;SDS011;33947;46.804;134.252;2023-04-01T00:47:59;9.77;;;2.10;;
46845;SDS011;33947;46.804;134.252;2023-04-01T00:51:11;1.95;;;1.42;;
46845;SDS011;33947;46.804;134.252;2023-04-01T00:54:16;5.72;;;1.75;;
46845;SDS011;33947;46.804;134.252;2023-04-01T01:00:34;8.57;;;3.40;;
46845;SDS011;33947;46.804;134.252;2023-04-01T01:10:32;21.73;;;3.85;;
46845;SDS011;33947;46.804;134.252;2023-04-01T01:13:50;11.63;;;3.03;;
46845;SDS011;33947;46.804;134.252;2023-04-01T01:17:11;3.03;;;1.35;;
46845;SDS011;33947;46.804;134.252;2023-04-01T01:23:52;6.43;;;1.70;;
46845;SDS011;33947;46.804;134.252;2023-04-01T01:27:16;15.15;;;2.33;;
46845;SDS011;33947;46.804;134.252;2023-04-01T01:37:19;3.83;;;1.88;;
46845;SDS011;33947;46.804;134.252;2023-04-01T01:40:27;1.88;;;1.40;;
46845;SDS011;33947;46.804;134.252;2023-04-01T01:43:42;31.92;;;4.13;;
46845;SDS011;33947;46.804;134.252;2023-04-01T01:46:51;14.95;;;5.97;;
46845;SDS011;33947;46.804;134.252;2023-04-01T01:49:56;3.83;;;2.20;;
46845;SDS011;33947;46.804;134.252;2023-04-01T01:53:04;2.72;;;1.60;;
46845;SDS011;33947;46.804;134.252;2023-04-01T01:56:11;2.33;;;1.60;;
46845;SDS011;33947;46.804;134.252;2023-04-01T01:59:19;18.45;;;2.95;;
46845;SDS011;33947;46.804;134.252;2023-04-01T02:02:26;6.65;;;1.80;;
46845;SDS011;33947;46.804;134.252;2023-04-01T02:05:34;2.42;;;1.83;;
46845;SDS011;33947;46.804;134.252;2023-04-01T02:12:08;3.47;;;1.60;;
46845;SDS011;33947;46.804;134.252;2023-04-01T02:15:16;9.57;;;2.70;;
46845;SDS011;33947;46.804;134.252;2023-04-01T02:18:31;3.22;;;1.60;;
46845;SDS011;33947;46.804;134.252;2023-04-01T02:21:40;9.85;;;5.18;;
46845;SDS011;33947;46.804;134.252;2023-04-01T02:24:47;4.95;;;2.15;;
46845;SDS011;33947;46.804;134.252;2023-04-01T02:28:05;1.73;;;1.50;;
46845;SDS011;33947;46.804;134.252;2023-04-01T02:31:36;4.45;;;1.50;;
46845;SDS011;33947;46.804;134.252;2023-04-01T02:34:58;10.70;;;2.90;;
46845;SDS011;33947;46.804;134.252;2023-04-01T02:38:35;10.95;;;1.77;;
46845;SDS011;33947;46.804;134.252;2023-04-01T02:41:43;2.58;;;1.50;;
46845;SDS011;33947;46.804;134.252;2023-04-01T02:45:11;2.92;;;1.65;;
46845;SDS011;33947;46.804;134.252;2023-04-01T02:48:50;18.42;;;2.97;;
46845;SDS011;33947;46.804;134.252;2023-04-01T02:52:18;16.45;;;3.28;;
46845;SDS011;33947;46.804;134.252;2023-04-01T02:55:43;2.67;;;2.00;;
46845;SDS011;33947;46.804;134.252;2023-04-01T02:58:59;7.22;;;2.33;;
46845;SDS011;33947;46.804;134.252;2023-04-01T03:02:43;25.73;;;2.92;;
46845;SDS011;33947;46.804;134.252;2023-04-01T03:06:11;3.33;;;1.50;;
46845;SDS011;33947;46.804;134.252;2023-04-01T03:09:27;14.25;;;2.30;;
46845;SDS011;33947;46.804;134.252;2023-04-01T03:12:36;1.70;;;1.60;;
46845;SDS011;33947;46.804;134.252;2023-04-01T03:15:51;15.55;;;2.80;;
46845;SDS011;33947;46.804;134.252;2023-04-01T03:18:58;3.60;;;1.70;;
46845;SDS011;33947;46.804;134.252;2023-04-01T03:22:16;5.80;;;2.70;;
46845;SDS011;33947;46.804;134.252;2023-04-01T03:25:27;2.38;;;1.65;;
46845;SDS011;33947;46.804;134.252;2023-04-01T03:28:35;15.38;;;9.25;;
46845;SDS011;33947;46.804;134.252;2023-04-01T03:31:39;28.35;;;10.48;;
46845;SDS011;33947;46.804;134.252;2023-04-01T03:34:43;10.95;;;7.93;;
46845;SDS011;33947;46.804;134.252;2023-04-01T03:37:48;2.72;;;1.75;;
46845;SDS011;33947;46.804;134.252;2023-04-01T03:40:54;9.95;;;2.65;;
46845;SDS011;33947;46.804;134.252;2023-04-01T03:43:59;3.60;;;2.13;;
46845;SDS011;33947;46.804;134.252;2023-04-01T03:47:03;27.42;;;3.85;;
46845;SDS011;33947;46.804;134.252;2023-04-01T03:50:08;2.47;;;2.08;;
46845;SDS011;33947;46.804;134.252;2023-04-01T03:53:13;2.78;;;1.92;;
46845;SDS011;33947;46.804;134.252;2023-04-01T03:56:20;11.60;;;10.13;;
46845;SDS011;33947;46.804;134.252;2023-04-01T03:59:25;5.37;;;4.00;;
46845;SDS011;33947;46.804;134.252;2023-04-01T04:02:29;12.20;;;5.93;;
46845;SDS011;33947;46.804;134.252;2023-04-01T04:05:34;13.15;;;7.45;;
46845;SDS011;33947;46.804;134.252;2023-04-01T04:08:39;11.60;;;6.82;;
46845;SDS011;33947;46.804;134.252;2023-04-01T04:11:44;76.50;;;8.55;;
46845;SDS011;33947;46.804;134.252;2023-04-01T04:14:48;7.13;;;2.90;;
46845;SDS011;33947;46.804;134.252;2023-04-01T04:17:52;11.77;;;7.40;;
46845;SDS011;33947;46.804;134.252;2023-04-01T04:20:57;6.43;;;4.85;;
46845;SDS011;33947;46.804;134.252;2023-04-01T04:24:02;9.18;;;5.78;;
46845;SDS011;33947;46.804;134.252;2023-04-01T04:27:42;2.58;;;1.80;;
46845;SDS011;33947;46.804;134.252;2023-04-01T04:30:50;5.20;;;2.20;;
46845;SDS011;33947;46.804;134.252;2023-04-01T04:33:54;4.20;;;2.25;;
46845;SDS011;33947;46.804;134.252;2023-04-01T04:36:59;10.75;;;3.33;;
46845;SDS011;33947;46.804;134.252;2023-04-01T04:40:08;11.00;;;3.40;;
46845;SDS011;33947;46.804;134.252;2023-04-01T04:43:14;10.38;;;2.95;;
46845;SDS011;33947;46.804;134.252;2023-04-01T04:46:23;7.05;;;3.50;;
46845;SDS011;33947;46.804;134.252;2023-04-01T04:49:35;15.10;;;4.77;;
46845;SDS011;33947;46.804;134.252;2023-04-01T04:52:43;26.38;;;5.47;;
46845;SDS011;33947;46.804;134.252;2023-04-01T04:55:51;11.88;;;3.53;;
46845;SDS011;33947;46.804;134.252;2023-04-01T04:59:18;4.10;;;2.70;;
46845;SDS011;33947;46.804;134.252;2023-04-01T05:02:31;10.35;;;2.83;;
46845;SDS011;33947;46.804;134.252;2023-04-01T05:05:36;6.65;;;2.50;;
46845;SDS011;33947;46.804;134.252;2023-04-01T05:08:44;5.25;;;3.03;;
46845;SDS011;33947;46.804;134.252;2023-04-01T05:11:49;6.35;;;2.13;;
46845;SDS011;33947;46.804;134.252;2023-04-01T05:14:55;3.70;;;2.50;;
46845;SDS011;33947;46.804;134.252;2023-04-01T05:17:59;2.65;;;2.08;;
46845;SDS011;33947;46.804;134.252;2023-04-01T05:21:03;6.88;;;2.28;;
46845;SDS011;33947;46.804;134.252;2023-04-01T05:24:08;8.35;;;2.50;;
46845;SDS011;33947;46.804;134.252;2023-04-01T05:27:14;7.00;;;2.10;;
46845;SDS011;33947;46.804;134.252;2023-04-01T05:30:19;3.17;;;2.08;;
46845;SDS011;33947;46.804;134.252;2023-04-01T05:33:36;7.70;;;2.47;;
46845;SDS011;33947;46.804;134.252;2023-04-01T05:36:41;11.40;;;5.35;;
46845;SDS011;33947;46.804;134.252;2023-04-01T05:39:46;7.35;;;2.53;;
46845;SDS011;33947;46.804;134.252;2023-04-01T05:42:51;6.68;;;2.20;;
46845;SDS011;33947;46.804;134.252;2023-04-01T05:45:56;8.55;;;2.60;;
46845;SDS011;33947;46.804;134.252;2023-04-01T05:49:24;5.07;;;2.60;;
46845;SDS011;33947;46.804;134.252;2023-04-01T05:52:30;3.78;;;2.20;;
46845;SDS011;33947;46.804;134.252;2023-04-01T05:55:35;5.70;;;2.58;;
46845;SDS011;33947;46.804;134.252;2023-04-01T05:58:40;6.80;;;2.90;;
46845;SDS011;33947;46.804;134.252;2023-04-01T06:01:45;6.32;;;2.17;;
46845;SDS011;33947;46.804;134.252;2023-04-01T06:04:49;5.60;;;2.22;;
46845;SDS011;33947;46.804;134.252;2023-04-01T06:08:11;4.65;;;2.55;;
46845;SDS011;33947;46.804;134.252;2023-04-01T06:18:39;1.83;;;1.60;;
46845;SDS011;33947;46.804;134.252;2023-04-01T06:32:02;3.83;;;2.40;;
46845;SDS011;33947;46.804;134.252;2023-04-01T06:52:57;25.73;;;4.47;;
46845;SDS011;33947;46.804;134.252;2023-04-01T06:56:42;3.90;;;2.60;;
46845;SDS011;33947;46.804;134.252;2023-04-01T06:59:56;7.43;;;3.03;;
46845;SDS011;33947;46.804;134.252;2023-04-01T07:06:56;9.23;;;3.38;;
46845;SDS011;33947;46.804;134.252;2023-04-01T07:10:17;6.82;;;2.70;;
46845;SDS011;33947;46.804;134.252;2023-04-01T07:13:50;9.90;;;4.10;;
46845;SDS011;33947;46.804;134.252;2023-04-01T07:20:22;15.02;;;4.57;;
46845;SDS011;33947;46.804;134.252;2023-04-01T07:23:40;5.22;;;2.83;;
46845;SDS011;33947;46.804;134.252;2023-04-01T07:27:27;7.68;;;2.65;;
46845;SDS011;33947;46.804;134.252;2023-04-01T07:30:44;9.82;;;3.15;;
46845;SDS011;33947;46.804;134.252;2023-04-01T07:34:00;5.55;;;2.83;;
46845;SDS011;33947;46.804;134.252;2023-04-01T07:40:47;3.17;;;2.28;;
46845;SDS011;33947;46.804;134.252;2023-04-01T07:43:55;4.25;;;2.60;;
46845;SDS011;33947;46.804;134.252;2023-04-01T07:47:30;10.40;;;2.53;;
46845;SDS011;33947;46.804;134.252;2023-04-01T07:54:54;6.22;;;3.10;;
46845;SDS011;33947;46.804;134.252;2023-04-01T07:58:51;20.33;;;4.07;;
46845;SDS011;33947;46.804;134.252;2023-04-01T08:12:01;4.45;;;2.67;;
46845;SDS011;33947;46.804;134.252;2023-04-01T08:22:50;14.18;;;3.85;;
46845;SDS011;33947;46.804;134.252;2023-04-01T08:26:02;3.90;;;2.55;;
46845;SDS011;33947;46.804;134.252;2023-04-01T08:29:52;7.95;;;2.85;;
46845;SDS011;33947;46.804;134.252;2023-04-01T08:32:58;4.43;;;2.60;;
46845;SDS011;33947;46.804;134.252;2023-04-01T08:36:31;27.58;;;5.63;;
46845;SDS011;33947;46.804;134.252;2023-04-01T08:39:48;10.98;;;3.00;;
46845;SDS011;33947;46.804;134.252;2023-04-01T08:46:34;14.38;;;3.92;;
46845;SDS011;33947;46.804;134.252;2023-04-01T08:56:31;25.02;;;12.57;;
46845;SDS011;33947;46.804;134.252;2023-04-01T09:00:07;178.73;;;67.95;;
46845;SDS011;33947;46.804;134.252;2023-04-01T09:07:46;81.90;;;36.88;;
46845;SDS011;33947;46.804;134.252;2023-04-01T09:28:17;61.20;;;20.98;;
46845;SDS011;33947;46.804;134.252;2023-04-01T09:32:13;63.55;;;19.58;;
46845;SDS011;33947;46.804;134.252;2023-04-01T09:58:42;123.95;;;48.97;;
46845;SDS011;33947;46.804;134.252;2023-04-01T10:16:42;67.18;;;23.33;;
46845;SDS011;33947;46.804;134.252;2023-04-01T10:20:00;81.93;;;21.58;;
46845;SDS011;33947;46.804;134.252;2023-04-01T10:23:37;65.90;;;19.20;;
46845;SDS011;33947;46.804;134.252;2023-04-01T10:27:06;48.80;;;16.25;;
46845;SDS011;33947;46.804;134.252;2023-04-01T10:41:33;91.90;;;28.55;;
46845;SDS011;33947;46.804;134.252;2023-04-01T10:52:07;115.40;;;29.23;;
46845;SDS011;33947;46.804;134.252;2023-04-01T11:45:25;107.32;;;35.67;;
46845;SDS011;33947;46.804;134.252;2023-04-01T11:48:52;112.22;;;38.97;;
46845;SDS011;33947;46.804;134.252;2023-04-01T12:09:47;92.82;;;33.85;;
46845;SDS011;33947;46.804;134.252;2023-04-01T12:19:54;109.55;;;36.85;;
46845;SDS011;33947;46.804;134.252;2023-04-01T12:27:17;99.88;;;37.08;;
46845;SDS011;33947;46.804;134.252;2023-04-01T12:30:32;117.18;;;46.72;;
46845;SDS011;33947;46.804;134.252;2023-04-01T13:08:07;149.55;;;48.75;;
46845;SDS011;33947;46.804;134.252;2023-04-01T13:11:18;157.80;;;53.60;;
46845;SDS011;33947;46.804;134.252;2023-04-01T13:14:40;276.42;;;77.50;;
46845;SDS011;33947;46.804;134.252;2023-04-01T13:18:11;176.73;;;52.65;;
46845;SDS011;33947;46.804;134.252;2023-04-01T13:21:34;157.00;;;51.05;;
46845;SDS011;33947;46.804;134.252;2023-04-01T13:28:33;81.80;;;34.03;;
46845;SDS011;33947;46.804;134.252;2023-04-01T13:41:45;156.20;;;49.88;;
46845;SDS011;33947;46.804;134.252;2023-04-01T13:45:19;117.60;;;45.20;;
46845;SDS011;33947;46.804;134.252;2023-04-01T13:48:35;147.60;;;49.28;;
46845;SDS011;33947;46.804;134.252;2023-04-01T13:55:10;132.23;;;46.17;;
46845;SDS011;33947;46.804;134.252;2023-04-01T13:58:43;193.48;;;60.00;;
46845;SDS011;33947;46.804;134.252;2023-04-01T14:09:17;237.57;;;80.32;;
46845;SDS011;33947;46.804;134.252;2023-04-01T14:12:47;135.98;;;51.03;;
46845;SDS011;33947;46.804;134.252;2023-04-01T14:16:14;151.73;;;53.03;;
46845;SDS011;33947;46.804;134.252;2023-04-01T14:54:44;107.78;;;33.03;;
46845;SDS011;33947;46.804;134.252;2023-04-01T14:58:08;87.35;;;31.10;;
46845;SDS011;33947;46.804;134.252;2023-04-01T15:01:28;117.53;;;37.00;;
46845;SDS011;33947;46.804;134.252;2023-04-01T15:04:50;115.45;;;38.05;;
46845;SDS011;33947;46.804;134.252;2023-04-01T15:11:48;30.30;;;14.57;;
46845;SDS011;33947;46.804;134.252;2023-04-01T15:41:43;43.53;;;15.40;;
46845;SDS011;33947;46.804;134.252;2023-04-01T15:48:33;39.30;;;18.90;;
46845;SDS011;33947;46.804;134.252;2023-04-01T15:51:45;49.85;;;15.73;;
46845;SDS011;33947;46.804;134.252;2023-04-01T15:58:28;43.40;;;14.77;;
46845;SDS011;33947;46.804;134.252;2023-04-01T16:01:51;29.73;;;13.40;;
46845;SDS011;33947;46.804;134.252;2023-04-01T16:18:29;36.75;;;21.92;;
46845;SDS011;33947;46.804;134.252;2023-04-01T16:25:31;5.82;;;3.65;;
46845;SDS011;33947;46.804;134.252;2023-04-01T16:28:57;4.05;;;3.20;;
46845;SDS011;33947;46.804;134.252;2023-04-01T16:32:29;4.25;;;2.90;;
46845;SDS011;33947;46.804;134.252;2023-04-01T16:35:33;5.18;;;3.00;;
46845;SDS011;33947;46.804;134.252;2023-04-01T16:38:50;2.90;;;2.55;;
46845;SDS011;33947;46.804;134.252;2023-04-01T16:42:27;4.65;;;3.10;;
46845;SDS011;33947;46.804;134.252;2023-04-01T16:49:00;4.10;;;2.80;;
46845;SDS011;33947;46.804;134.252;2023-04-01T16:52:13;6.68;;;3.20;;
46845;SDS011;33947;46.804;134.252;2023-04-01T16:55:20;5.78;;;2.65;;
46845;SDS011;33947;46.804;134.252;2023-04-01T16:58:33;4.75;;;2.92;;
46845;SDS011;33947;46.804;134.252;2023-04-01T17:02:02;3.78;;;3.15;;
46845;SDS011;33947;46.804;134.252;2023-04-01T17:05:13;4.82;;;3.10;;
46845;SDS011;33947;46.804;134.252;2023-04-01T17:08:34;5.88;;;3.20;;
46845;SDS011;33947;46.804;134.252;2023-04-01T17:18:36;7.22;;;3.58;;
46845;SDS011;33947;46.804;134.252;2023-04-01T17:25:38;60.20;;;20.10;;
46845;SDS011;33947;46.804;134.252;2023-04-01T18:23:24;6.80;;;3.42;;
46845;SDS011;33947;46.804;134.252;2023-04-01T18:26:35;5.78;;;3.33;;
46845;SDS011;33947;46.804;134.252;2023-04-01T18:29:47;9.25;;;4.20;;
46845;SDS011;33947;46.804;134.252;2023-04-01T18:53:39;5.28;;;3.58;;
46845;SDS011;33947;46.804;134.252;2023-04-01T18:56:50;8.20;;;4.25;;
46845;SDS011;33947;46.804;134.252;2023-04-01T19:03:10;8.48;;;4.30;;
46845;SDS011;33947;46.804;134.252;2023-04-01T19:06:30;9.30;;;4.37;;
46845;SDS011;33947;46.804;134.252;2023-04-01T19:09:45;10.00;;;5.10;;
46845;SDS011;33947;46.804;134.252;2023-04-01T19:19:50;9.18;;;5.35;;
46845;SDS011;33947;46.804;134.252;2023-04-01T19:26:39;10.98;;;6.32;;
46845;SDS011;33947;46.804;134.252;2023-04-01T19:47:04;12.63;;;6.90;;
46845;SDS011;33947;46.804;134.252;2023-04-01T19:50:48;13.70;;;7.85;;
46845;SDS011;33947;46.804;134.252;2023-04-01T19:54:09;19.73;;;7.70;;
46845;SDS011;33947;46.804;134.252;2023-04-01T20:04:56;10.15;;;6.45;;
46845;SDS011;33947;46.804;134.252;2023-04-01T20:11:50;11.93;;;8.10;;
46845;SDS011;33947;46.804;134.252;2023-04-01T20:21:59;44.80;;;13.57;;
46845;SDS011;33947;46.804;134.252;2023-04-01T20:25:10;13.70;;;8.93;;
46845;SDS011;33947;46.804;134.252;2023-04-01T20:28:42;25.33;;;12.95;;
46845;SDS011;33947;46.804;134.252;2023-04-01T20:32:10;17.80;;;10.18;;
46845;SDS011;33947;46.804;134.252;2023-04-01T20:35:34;15.85;;;9.88;;
46845;SDS011;33947;46.804;134.252;2023-04-01T20:58:53;15.57;;;10.35;;
46845;SDS011;33947;46.804;134.252;2023-04-01T21:16:19;22.33;;;11.93;;
46845;SDS011;33947;46.804;134.252;2023-04-01T21:33:03;39.17;;;10.68;;
46845;SDS011;33947;46.804;134.252;2023-04-01T21:40:02;16.67;;;8.15;;
46845;SDS011;33947;46.804;134.252;2023-04-01T22:00:09;12.02;;;7.38;;
46845;SDS011;33947;46.804;134.252;2023-04-01T22:06:58;12.73;;;7.82;;
46845;SDS011;33947;46.804;134.252;2023-04-01T22:10:26;12.35;;;6.80;;
46845;SDS011;33947;46.804;134.252;2023-04-01T22:13:46;13.93;;;7.57;;
46845;SDS011;33947;46.804;134.252;2023-04-01T22:17:21;11.23;;;7.15;;
46845;SDS011;33947;46.804;134.252;2023-04-01T22:20:36;14.48;;;7.38;;
46845;SDS011;33947;46.804;134.252;2023-04-01T22:30:52;38.15;;;11.75;;
46845;SDS011;33947;46.804;134.252;2023-04-01T22:41:16;16.38;;;7.88;;
46845;SDS011;33947;46.804;134.252;2023-04-01T22:44:39;29.45;;;9.63;;
46845;SDS011;33947;46.804;134.252;2023-04-01T22:48:26;17.10;;;7.97;;
46845;SDS011;33947;46.804;134.252;2023-04-01T22:52:01;19.75;;;8.50;;
46845;SDS011;33947;46.804;134.252;2023-04-01T22:55:24;11.95;;;8.20;;
46845;SDS011;33947;46.804;134.252;2023-04-01T22:58:56;14.48;;;8.05;;
46845;SDS011;33947;46.804;134.252;2023-04-01T23:05:36;59.88;;;27.48;;
46845;SDS011;33947;46.804;134.252;2023-04-01T23:09:02;14.52;;;9.80;;
46845;SDS011;33947;46.804;134.252;2023-04-01T23:12:13;16.52;;;8.38;;
46845;SDS011;33947;46.804;134.252;2023-04-01T23:15:20;16.73;;;9.07;;
46845;SDS011;33947;46.804;134.252;2023-04-01T23:18:30;21.00;;;12.70;;
46845;SDS011;33947;46.804;134.252;2023-04-01T23:21:39;30.13;;;19.70;;
46845;SDS011;33947;46.804;134.252;2023-04-01T23:31:45;16.73;;;7.70;;
46845;SDS011;33947;46.804;134.252;2023-04-01T23:34:52;18.60;;;7.53;;
46845;SDS011;33947;46.804;134.252;2023-04-01T23:38:01;19.10;;;7.25;;
46845;SDS011;33947;46.804;134.252;2023-04-01T23:41:06;12.18;;;7.00;;
46845;SDS011;33947;46.804;134.252;2023-04-01T23:44:20;13.57;;;7.05;;
46845;SDS011;33947;46.804;134.252;2023-04-01T23:47:32;10.15;;;7.28;;
46845;SDS011;33947;46.804;134.252;2023-04-01T23:50:39;33.70;;;9.05;;
46845;SDS011;33947;46.804;134.252;2023-04-01T23:53:45;9.98;;;7.30;;
46845;SDS011;33947;46.804;134.252;2023-04-01T23:56:52;21.60;;;7.85;;
